sensor_id;sensor_type;location;lat;lon;timestamp;P1;durP1;ratioP1;P2;durP2;ratioP2
49764;SDS011;35657;51.204;-4.130;2023-02-03T00:01:26;3.13;;;1.80;;
49764;SDS011;35657;51.204;-4.130;2023-02-03T00:03:52;5.35;;;1.30;;
49764;SDS011;35657;51.204;-4.130;2023-02-03T00:06:18;5.95;;;1.17;;
49764;SDS011;35657;51.204;-4.130;2023-02-03T00:08:44;7.35;;;1.48;;
49764;SDS011;35657;51.204;-4.130;2023-02-03T00:11:10;4.07;;;1.98;;
49764;SDS011;35657;51.204;-4.130;2023-02-03T00:13:36;2.28;;;1.02;;
49764;SDS011;35657;51.204;-4.130;2023-02-03T00:16:01;5.55;;;1.15;;
49764;SDS011;35657;51.204;-4.130;2023-02-03T00:18:27;2.15;;;1.23;;
49764;SDS011;35657;51.204;-4.130;2023-02-03T00:20:53;3.00;;;0.80;;
49764;SDS011;35657;51.204;-4.130;2023-02-03T00:23:19;4.47;;;1.02;;
49764;SDS011;35657;51.204;-4.130;2023-02-03T00:25:44;13.40;;;1.55;;
49764;SDS011;35657;51.204;-4.130;2023-02-03T00:28:11;6.72;;;1.50;;
49764;SDS011;35657;51.204;-4.130;2023-02-03T00:30:37;3.95;;;1.35;;
49764;SDS011;35657;51.204;-4.130;2023-02-03T00:33:02;4.70;;;0.77;;
49764;SDS011;35657;51.204;-4.130;2023-02-03T00:35:28;5.47;;;1.25;;
49764;SDS011;35657;51.204;-4.130;2023-02-03T00:37:55;7.40;;;1.45;;
49764;SDS011;35657;51.204;-4.130;2023-02-03T00:40:23;2.28;;;1.20;;
49764;SDS011;35657;51.204;-4.130;2023-02-03T00:42:50;3.80;;;0.90;;
49764;SDS011;35657;51.204;-4.130;2023-02-03T00:45:16;3.10;;;1.35;;
49764;SDS011;35657;51.204;-4.130;2023-02-03T00:47:43;1.55;;;0.93;;
49764;SDS011;35657;51.204;-4.130;2023-02-03T00:50:09;8.25;;;0.90;;
49764;SDS011;35657;51.204;-4.130;2023-02-03T00:52:35;7.05;;;0.73;;
49764;SDS011;35657;51.204;-4.130;2023-02-03T00:55:01;2.75;;;0.82;;
49764;SDS011;35657;51.204;-4.130;2023-02-03T00:57:28;6.50;;;1.25;;
49764;SDS011;35657;51.204;-4.130;2023-02-03T00:59:55;3.97;;;0.68;;
49764;SDS011;35657;51.204;-4.130;2023-02-03T01:02:22;4.88;;;1.65;;
49764;SDS011;35657;51.204;-4.130;2023-02-03T01:04:48;21.25;;;9.82;;
49764;SDS011;35657;51.204;-4.130;2023-02-03T01:07:14;24.90;;;10.88;;
49764;SDS011;35657;51.204;-4.130;2023-02-03T01:09:40;52.78;;;25.35;;
49764;SDS011;35657;51.204;-4.130;2023-02-03T01:12:05;36.47;;;18.58;;
49764;SDS011;35657;51.204;-4.130;2023-02-03T01:14:31;22.92;;;11.77;;
49764;SDS011;35657;51.204;-4.130;2023-02-03T01:16:57;27.92;;;15.80;;
49764;SDS011;35657;51.204;-4.130;2023-02-03T01:19:24;10.43;;;6.88;;
49764;SDS011;35657;51.204;-4.130;2023-02-03T01:21:50;15.68;;;7.20;;
49764;SDS011;35657;51.204;-4.130;2023-02-03T01:24:15;14.48;;;6.22;;
49764;SDS011;35657;51.204;-4.130;2023-02-03T01:26:41;15.88;;;4.15;;
49764;SDS011;35657;51.204;-4.130;2023-02-03T01:29:08;8.93;;;2.50;;
49764;SDS011;35657;51.204;-4.130;2023-02-03T01:31:35;5.70;;;2.25;;
49764;SDS011;35657;51.204;-4.130;2023-02-03T01:34:03;6.63;;;2.70;;
49764;SDS011;35657;51.204;-4.130;2023-02-03T01:36:36;9.23;;;3.97;;
49764;SDS011;35657;51.204;-4.130;2023-02-03T01:39:02;5.75;;;1.95;;
49764;SDS011;35657;51.204;-4.130;2023-02-03T01:41:33;4.60;;;1.35;;
49764;SDS011;35657;51.204;-4.130;2023-02-03T01:44:00;6.05;;;2.40;;
49764;SDS011;35657;51.204;-4.130;2023-02-03T01:46:47;5.50;;;1.20;;
49764;SDS011;35657;51.204;-4.130;2023-02-03T01:49:19;7.20;;;2.63;;
49764;SDS011;35657;51.204;-4.130;2023-02-03T01:54:16;13.05;;;1.35;;
49764;SDS011;35657;51.204;-4.130;2023-02-03T01:56:47;2.78;;;1.33;;
49764;SDS011;35657;51.204;-4.130;2023-02-03T01:59:19;3.17;;;1.00;;
49764;SDS011;35657;51.204;-4.130;2023-02-03T02:01:47;12.10;;;1.30;;
49764;SDS011;35657;51.204;-4.130;2023-02-03T02:04:14;5.70;;;0.65;;
49764;SDS011;35657;51.204;-4.130;2023-02-03T02:06:40;5.80;;;1.30;;
49764;SDS011;35657;51.204;-4.130;2023-02-03T02:09:06;4.40;;;1.00;;
49764;SDS011;35657;51.204;-4.130;2023-02-03T02:11:33;3.40;;;1.10;;
49764;SDS011;35657;51.204;-4.130;2023-02-03T02:13:59;4.45;;;1.10;;
49764;SDS011;35657;51.204;-4.130;2023-02-03T02:16:45;7.47;;;1.10;;
49764;SDS011;35657;51.204;-4.130;2023-02-03T02:38:52;3.47;;;0.85;;
49764;SDS011;35657;51.204;-4.130;2023-02-03T02:44:24;4.07;;;0.93;;
49764;SDS011;35657;51.204;-4.130;2023-02-03T02:46:56;1.10;;;0.85;;
49764;SDS011;35657;51.204;-4.130;2023-02-03T02:49:33;5.53;;;1.08;;
49764;SDS011;35657;51.204;-4.130;2023-02-03T02:52:04;13.05;;;2.00;;
49764;SDS011;35657;51.204;-4.130;2023-02-03T02:54:32;7.97;;;1.17;;
49764;SDS011;35657;51.204;-4.130;2023-02-03T02:57:00;4.07;;;0.93;;
49764;SDS011;35657;51.204;-4.130;2023-02-03T02:59:29;2.40;;;0.73;;
49764;SDS011;35657;51.204;-4.130;2023-02-03T03:01:55;1.27;;;0.63;;
49764;SDS011;35657;51.204;-4.130;2023-02-03T03:04:22;2.58;;;0.43;;
49764;SDS011;35657;51.204;-4.130;2023-02-03T03:07:00;5.45;;;1.10;;
49764;SDS011;35657;51.204;-4.130;2023-02-03T03:09:37;4.60;;;0.93;;
49764;SDS011;35657;51.204;-4.130;2023-02-03T03:14:40;2.60;;;0.73;;
49764;SDS011;35657;51.204;-4.130;2023-02-03T03:17:10;7.50;;;0.73;;
49764;SDS011;35657;51.204;-4.130;2023-02-03T03:19:43;6.45;;;1.30;;
49764;SDS011;35657;51.204;-4.130;2023-02-03T03:22:14;5.38;;;0.95;;
49764;SDS011;35657;51.204;-4.130;2023-02-03T03:24:47;2.42;;;0.80;;
49764;SDS011;35657;51.204;-4.130;2023-02-03T03:27:22;4.60;;;0.80;;
49764;SDS011;35657;51.204;-4.130;2023-02-03T03:32:25;2.38;;;0.73;;
49764;SDS011;35657;51.204;-4.130;2023-02-03T03:34:54;2.05;;;0.80;;
49764;SDS011;35657;51.204;-4.130;2023-02-03T03:37:27;1.73;;;0.50;;
49764;SDS011;35657;51.204;-4.130;2023-02-03T03:40:00;2.60;;;0.88;;
49764;SDS011;35657;51.204;-4.130;2023-02-03T03:45:38;4.47;;;0.68;;
49764;SDS011;35657;51.204;-4.130;2023-02-03T03:48:24;3.25;;;0.80;;
49764;SDS011;35657;51.204;-4.130;2023-02-03T03:50:59;5.72;;;0.63;;
49764;SDS011;35657;51.204;-4.130;2023-02-03T03:53:29;1.27;;;0.30;;
49764;SDS011;35657;51.204;-4.130;2023-02-03T03:55:59;7.63;;;1.02;;
49764;SDS011;35657;51.204;-4.130;2023-02-03T03:58:30;4.55;;;1.25;;
49764;SDS011;35657;51.204;-4.130;2023-02-03T04:00:58;6.55;;;1.50;;
49764;SDS011;35657;51.204;-4.130;2023-02-03T04:03:27;2.05;;;0.50;;
49764;SDS011;35657;51.204;-4.130;2023-02-03T04:05:57;2.17;;;0.50;;
49764;SDS011;35657;51.204;-4.130;2023-02-03T04:08:23;3.03;;;0.95;;
49764;SDS011;35657;51.204;-4.130;2023-02-03T04:10:48;5.43;;;0.93;;
49764;SDS011;35657;51.204;-4.130;2023-02-03T04:13:14;0.57;;;0.20;;
49764;SDS011;35657;51.204;-4.130;2023-02-03T04:15:43;2.75;;;0.65;;
49764;SDS011;35657;51.204;-4.130;2023-02-03T04:18:10;1.88;;;1.00;;
49764;SDS011;35657;51.204;-4.130;2023-02-03T04:20:37;2.75;;;0.75;;
49764;SDS011;35657;51.204;-4.130;2023-02-03T04:23:03;5.32;;;0.52;;
49764;SDS011;35657;51.204;-4.130;2023-02-03T04:25:29;6.18;;;0.98;;
49764;SDS011;35657;51.204;-4.130;2023-02-03T04:27:55;6.00;;;0.73;;
49764;SDS011;35657;51.204;-4.130;2023-02-03T04:30:21;1.02;;;0.30;;
49764;SDS011;35657;51.204;-4.130;2023-02-03T04:32:47;1.58;;;0.50;;
49764;SDS011;35657;51.204;-4.130;2023-02-03T04:35:13;3.78;;;1.30;;
49764;SDS011;35657;51.204;-4.130;2023-02-03T04:37:39;3.33;;;0.93;;
49764;SDS011;35657;51.204;-4.130;2023-02-03T04:40:05;1.05;;;0.38;;
49764;SDS011;35657;51.204;-4.130;2023-02-03T04:42:32;4.88;;;0.95;;
49764;SDS011;35657;51.204;-4.130;2023-02-03T04:44:58;6.60;;;1.52;;
49764;SDS011;35657;51.204;-4.130;2023-02-03T04:47:23;3.50;;;0.85;;
49764;SDS011;35657;51.204;-4.130;2023-02-03T04:49:49;2.90;;;0.55;;
49764;SDS011;35657;51.204;-4.130;2023-02-03T04:52:15;2.25;;;0.35;;
49764;SDS011;35657;51.204;-4.130;2023-02-03T04:54:40;5.93;;;0.88;;
49764;SDS011;35657;51.204;-4.130;2023-02-03T04:57:06;1.30;;;0.40;;
49764;SDS011;35657;51.204;-4.130;2023-02-03T04:59:32;1.27;;;0.40;;
49764;SDS011;35657;51.204;-4.130;2023-02-03T05:01:57;2.25;;;0.57;;
49764;SDS011;35657;51.204;-4.130;2023-02-03T05:04:25;3.92;;;1.45;;
49764;SDS011;35657;51.204;-4.130;2023-02-03T05:06:51;0.52;;;0.20;;
49764;SDS011;35657;51.204;-4.130;2023-02-03T05:09:17;4.60;;;1.13;;
49764;SDS011;35657;51.204;-4.130;2023-02-03T05:11:42;2.30;;;0.90;;
49764;SDS011;35657;51.204;-4.130;2023-02-03T05:14:08;2.72;;;0.90;;
49764;SDS011;35657;51.204;-4.130;2023-02-03T05:16:34;2.42;;;0.70;;
49764;SDS011;35657;51.204;-4.130;2023-02-03T05:19:00;2.92;;;0.45;;
49764;SDS011;35657;51.204;-4.130;2023-02-03T05:21:25;3.83;;;0.60;;
49764;SDS011;35657;51.204;-4.130;2023-02-03T05:23:51;3.90;;;0.82;;
49764;SDS011;35657;51.204;-4.130;2023-02-03T05:26:17;2.30;;;1.27;;
49764;SDS011;35657;51.204;-4.130;2023-02-03T05:28:42;5.97;;;1.17;;
49764;SDS011;35657;51.204;-4.130;2023-02-03T05:31:08;11.40;;;1.63;;
49764;SDS011;35657;51.204;-4.130;2023-02-03T05:33:34;0.75;;;0.32;;
49764;SDS011;35657;51.204;-4.130;2023-02-03T05:35:59;3.88;;;0.70;;
49764;SDS011;35657;51.204;-4.130;2023-02-03T05:38:25;6.45;;;0.60;;
49764;SDS011;35657;51.204;-4.130;2023-02-03T05:40:51;5.25;;;0.60;;
49764;SDS011;35657;51.204;-4.130;2023-02-03T05:43:36;4.38;;;0.90;;
49764;SDS011;35657;51.204;-4.130;2023-02-03T05:46:02;3.65;;;0.88;;
49764;SDS011;35657;51.204;-4.130;2023-02-03T05:48:30;8.38;;;1.23;;
49764;SDS011;35657;51.204;-4.130;2023-02-03T05:50:56;2.63;;;1.02;;
49764;SDS011;35657;51.204;-4.130;2023-02-03T05:53:22;7.45;;;1.25;;
49764;SDS011;35657;51.204;-4.130;2023-02-03T05:55:49;2.83;;;0.50;;
49764;SDS011;35657;51.204;-4.130;2023-02-03T05:58:14;2.65;;;1.13;;
49764;SDS011;35657;51.204;-4.130;2023-02-03T06:00:40;1.65;;;0.73;;
49764;SDS011;35657;51.204;-4.130;2023-02-03T06:03:06;4.10;;;0.43;;
49764;SDS011;35657;51.204;-4.130;2023-02-03T06:05:32;3.60;;;0.95;;
49764;SDS011;35657;51.204;-4.130;2023-02-03T06:07:59;3.83;;;0.75;;
49764;SDS011;35657;51.204;-4.130;2023-02-03T06:10:25;0.93;;;0.40;;
49764;SDS011;35657;51.204;-4.130;2023-02-03T06:12:51;6.85;;;0.95;;
49764;SDS011;35657;51.204;-4.130;2023-02-03T06:15:18;5.10;;;0.45;;
49764;SDS011;35657;51.204;-4.130;2023-02-03T06:17:44;2.15;;;0.70;;
49764;SDS011;35657;51.204;-4.130;2023-02-03T06:20:12;2.88;;;0.75;;
49764;SDS011;35657;51.204;-4.130;2023-02-03T06:22:41;3.63;;;0.80;;
49764;SDS011;35657;51.204;-4.130;2023-02-03T06:25:08;2.47;;;0.88;;
49764;SDS011;35657;51.204;-4.130;2023-02-03T06:27:34;8.88;;;1.35;;
49764;SDS011;35657;51.204;-4.130;2023-02-03T06:30:00;7.70;;;0.95;;
49764;SDS011;35657;51.204;-4.130;2023-02-03T06:32:26;5.25;;;1.02;;
49764;SDS011;35657;51.204;-4.130;2023-02-03T06:34:52;0.80;;;0.40;;
49764;SDS011;35657;51.204;-4.130;2023-02-03T06:37:18;3.58;;;1.08;;
49764;SDS011;35657;51.204;-4.130;2023-02-03T06:39:44;3.00;;;0.50;;
49764;SDS011;35657;51.204;-4.130;2023-02-03T06:42:09;4.53;;;1.23;;
49764;SDS011;35657;51.204;-4.130;2023-02-03T06:44:35;2.45;;;0.30;;
49764;SDS011;35657;51.204;-4.130;2023-02-03T06:47:01;3.20;;;0.88;;
49764;SDS011;35657;51.204;-4.130;2023-02-03T06:49:27;1.55;;;0.43;;
49764;SDS011;35657;51.204;-4.130;2023-02-03T06:51:54;1.67;;;0.30;;
49764;SDS011;35657;51.204;-4.130;2023-02-03T06:54:20;3.20;;;0.60;;
49764;SDS011;35657;51.204;-4.130;2023-02-03T06:56:45;3.90;;;0.57;;
49764;SDS011;35657;51.204;-4.130;2023-02-03T06:59:11;1.80;;;0.70;;
49764;SDS011;35657;51.204;-4.130;2023-02-03T07:01:37;3.83;;;0.40;;
49764;SDS011;35657;51.204;-4.130;2023-02-03T07:04:03;4.38;;;0.63;;
49764;SDS011;35657;51.204;-4.130;2023-02-03T07:06:29;4.10;;;0.80;;
49764;SDS011;35657;51.204;-4.130;2023-02-03T07:08:58;3.30;;;0.65;;
49764;SDS011;35657;51.204;-4.130;2023-02-03T07:11:25;2.25;;;0.57;;
49764;SDS011;35657;51.204;-4.130;2023-02-03T07:13:51;10.50;;;0.60;;
49764;SDS011;35657;51.204;-4.130;2023-02-03T07:16:18;9.63;;;1.08;;
49764;SDS011;35657;51.204;-4.130;2023-02-03T07:18:44;4.95;;;1.95;;
49764;SDS011;35657;51.204;-4.130;2023-02-03T07:21:10;2.67;;;0.52;;
49764;SDS011;35657;51.204;-4.130;2023-02-03T07:23:36;6.25;;;0.95;;
49764;SDS011;35657;51.204;-4.130;2023-02-03T07:26:02;3.13;;;0.57;;
49764;SDS011;35657;51.204;-4.130;2023-02-03T07:28:33;2.10;;;0.43;;
49764;SDS011;35657;51.204;-4.130;2023-02-03T07:30:59;3.55;;;1.08;;
49764;SDS011;35657;51.204;-4.130;2023-02-03T07:33:26;3.78;;;0.70;;
49764;SDS011;35657;51.204;-4.130;2023-02-03T07:35:55;11.48;;;0.90;;
49764;SDS011;35657;51.204;-4.130;2023-02-03T07:38:23;1.77;;;0.70;;
49764;SDS011;35657;51.204;-4.130;2023-02-03T07:40:50;2.03;;;0.43;;
49764;SDS011;35657;51.204;-4.130;2023-02-03T07:43:16;4.60;;;1.08;;
49764;SDS011;35657;51.204;-4.130;2023-02-03T07:45:42;1.83;;;0.82;;
49764;SDS011;35657;51.204;-4.130;2023-02-03T07:48:08;2.28;;;0.75;;
49764;SDS011;35657;51.204;-4.130;2023-02-03T07:50:34;5.47;;;1.20;;
49764;SDS011;35657;51.204;-4.130;2023-02-03T07:53:00;1.35;;;0.70;;
49764;SDS011;35657;51.204;-4.130;2023-02-03T07:55:26;6.97;;;0.65;;
49764;SDS011;35657;51.204;-4.130;2023-02-03T07:57:53;4.32;;;0.63;;
49764;SDS011;35657;51.204;-4.130;2023-02-03T08:00:19;4.38;;;0.60;;
49764;SDS011;35657;51.204;-4.130;2023-02-03T08:02:45;1.80;;;0.82;;
49764;SDS011;35657;51.204;-4.130;2023-02-03T08:05:12;1.42;;;0.65;;
49764;SDS011;35657;51.204;-4.130;2023-02-03T08:07:38;3.95;;;0.50;;
49764;SDS011;35657;51.204;-4.130;2023-02-03T08:10:05;4.22;;;0.80;;
49764;SDS011;35657;51.204;-4.130;2023-02-03T08:12:31;4.65;;;0.88;;
49764;SDS011;35657;51.204;-4.130;2023-02-03T08:14:57;4.55;;;0.63;;
49764;SDS011;35657;51.204;-4.130;2023-02-03T08:17:23;8.80;;;0.77;;
49764;SDS011;35657;51.204;-4.130;2023-02-03T08:19:48;6.25;;;0.63;;
49764;SDS011;35657;51.204;-4.130;2023-02-03T08:22:14;1.83;;;0.85;;
49764;SDS011;35657;51.204;-4.130;2023-02-03T08:24:46;2.78;;;0.50;;
49764;SDS011;35657;51.204;-4.130;2023-02-03T08:27:16;0.68;;;0.65;;
49764;SDS011;35657;51.204;-4.130;2023-02-03T08:29:43;1.73;;;0.50;;
49764;SDS011;35657;51.204;-4.130;2023-02-03T08:32:13;4.88;;;1.15;;
49764;SDS011;35657;51.204;-4.130;2023-02-03T08:34:41;3.45;;;0.35;;
49764;SDS011;35657;51.204;-4.130;2023-02-03T08:37:08;4.53;;;0.57;;
49764;SDS011;35657;51.204;-4.130;2023-02-03T08:39:35;1.02;;;0.52;;
49764;SDS011;35657;51.204;-4.130;2023-02-03T08:42:01;1.35;;;0.80;;
49764;SDS011;35657;51.204;-4.130;2023-02-03T08:44:28;1.95;;;0.52;;
49764;SDS011;35657;51.204;-4.130;2023-02-03T08:46:55;3.00;;;0.77;;
49764;SDS011;35657;51.204;-4.130;2023-02-03T08:49:22;4.50;;;0.55;;
49764;SDS011;35657;51.204;-4.130;2023-02-03T08:51:50;6.15;;;1.05;;
49764;SDS011;35657;51.204;-4.130;2023-02-03T08:54:16;7.32;;;1.08;;
49764;SDS011;35657;51.204;-4.130;2023-02-03T08:56:42;2.50;;;0.40;;
49764;SDS011;35657;51.204;-4.130;2023-02-03T08:59:08;2.88;;;0.88;;
49764;SDS011;35657;51.204;-4.130;2023-02-03T09:01:34;8.07;;;1.67;;
49764;SDS011;35657;51.204;-4.130;2023-02-03T09:04:00;7.97;;;1.23;;
49764;SDS011;35657;51.204;-4.130;2023-02-03T09:06:28;7.78;;;1.27;;
49764;SDS011;35657;51.204;-4.130;2023-02-03T09:08:55;0.75;;;0.35;;
49764;SDS011;35657;51.204;-4.130;2023-02-03T09:11:21;3.95;;;0.80;;
49764;SDS011;35657;51.204;-4.130;2023-02-03T09:13:50;2.17;;;0.47;;
49764;SDS011;35657;51.204;-4.130;2023-02-03T09:16:16;1.92;;;0.75;;
49764;SDS011;35657;51.204;-4.130;2023-02-03T09:18:44;7.38;;;1.02;;
49764;SDS011;35657;51.204;-4.130;2023-02-03T09:21:10;4.97;;;0.77;;
49764;SDS011;35657;51.204;-4.130;2023-02-03T09:23:37;3.08;;;1.20;;
49764;SDS011;35657;51.204;-4.130;2023-02-03T09:26:04;2.47;;;1.02;;
49764;SDS011;35657;51.204;-4.130;2023-02-03T09:28:32;6.38;;;0.95;;
49764;SDS011;35657;51.204;-4.130;2023-02-03T09:31:03;4.38;;;0.80;;
49764;SDS011;35657;51.204;-4.130;2023-02-03T09:33:34;5.45;;;1.60;;
49764;SDS011;35657;51.204;-4.130;2023-02-03T09:36:00;4.25;;;0.68;;
49764;SDS011;35657;51.204;-4.130;2023-02-03T09:38:26;4.28;;;0.70;;
49764;SDS011;35657;51.204;-4.130;2023-02-03T09:40:53;4.68;;;1.45;;
49764;SDS011;35657;51.204;-4.130;2023-02-03T09:43:28;3.33;;;0.85;;
49764;SDS011;35657;51.204;-4.130;2023-02-03T09:46:02;5.03;;;1.25;;
49764;SDS011;35657;51.204;-4.130;2023-02-03T09:48:34;5.63;;;0.85;;
49764;SDS011;35657;51.204;-4.130;2023-02-03T09:54:15;8.15;;;1.45;;
49764;SDS011;35657;51.204;-4.130;2023-02-03T09:57:12;1.17;;;0.45;;
49764;SDS011;35657;51.204;-4.130;2023-02-03T09:59:46;7.72;;;1.40;;
49764;SDS011;35657;51.204;-4.130;2023-02-03T10:02:50;5.40;;;1.50;;
49764;SDS011;35657;51.204;-4.130;2023-02-03T10:05:20;5.97;;;1.50;;
49764;SDS011;35657;51.204;-4.130;2023-02-03T10:08:14;5.25;;;1.05;;
49764;SDS011;35657;51.204;-4.130;2023-02-03T10:16:45;6.72;;;1.63;;
49764;SDS011;35657;51.204;-4.130;2023-02-03T10:19:26;4.40;;;1.20;;
49764;SDS011;35657;51.204;-4.130;2023-02-03T10:22:00;2.13;;;0.73;;
49764;SDS011;35657;51.204;-4.130;2023-02-03T10:27:14;4.57;;;0.35;;
49764;SDS011;35657;51.204;-4.130;2023-02-03T10:29:43;5.70;;;0.90;;
49764;SDS011;35657;51.204;-4.130;2023-02-03T10:32:11;7.93;;;0.93;;
49764;SDS011;35657;51.204;-4.130;2023-02-03T10:34:37;2.22;;;0.68;;
49764;SDS011;35657;51.204;-4.130;2023-02-03T10:39:43;4.93;;;0.90;;
49764;SDS011;35657;51.204;-4.130;2023-02-03T10:42:14;6.25;;;1.15;;
49764;SDS011;35657;51.204;-4.130;2023-02-03T10:47:16;1.83;;;0.95;;
49764;SDS011;35657;51.204;-4.130;2023-02-03T10:49:48;8.02;;;1.27;;
49764;SDS011;35657;51.204;-4.130;2023-02-03T10:52:31;6.95;;;1.10;;
49764;SDS011;35657;51.204;-4.130;2023-02-03T10:55:03;5.18;;;1.58;;
49764;SDS011;35657;51.204;-4.130;2023-02-03T10:57:49;10.07;;;1.20;;
49764;SDS011;35657;51.204;-4.130;2023-02-03T11:00:31;6.50;;;1.20;;
49764;SDS011;35657;51.204;-4.130;2023-02-03T11:05:25;1.55;;;0.52;;
49764;SDS011;35657;51.204;-4.130;2023-02-03T11:07:51;1.27;;;0.70;;
49764;SDS011;35657;51.204;-4.130;2023-02-03T11:10:24;4.15;;;0.65;;
49764;SDS011;35657;51.204;-4.130;2023-02-03T11:12:51;2.33;;;0.28;;
49764;SDS011;35657;51.204;-4.130;2023-02-03T11:15:22;2.13;;;0.68;;
49764;SDS011;35657;51.204;-4.130;2023-02-03T11:17:48;3.95;;;0.82;;
49764;SDS011;35657;51.204;-4.130;2023-02-03T11:20:14;2.47;;;0.50;;
49764;SDS011;35657;51.204;-4.130;2023-02-03T11:22:41;2.42;;;0.55;;
49764;SDS011;35657;51.204;-4.130;2023-02-03T11:25:15;2.13;;;0.28;;
49764;SDS011;35657;51.204;-4.130;2023-02-03T11:27:44;0.95;;;0.47;;
49764;SDS011;35657;51.204;-4.130;2023-02-03T11:30:14;5.80;;;1.70;;
49764;SDS011;35657;51.204;-4.130;2023-02-03T11:32:45;4.90;;;1.02;;
49764;SDS011;35657;51.204;-4.130;2023-02-03T11:35:22;4.15;;;0.52;;
49764;SDS011;35657;51.204;-4.130;2023-02-03T11:37:50;4.25;;;0.90;;
49764;SDS011;35657;51.204;-4.130;2023-02-03T11:40:36;6.03;;;0.60;;
49764;SDS011;35657;51.204;-4.130;2023-02-03T11:43:16;2.50;;;0.73;;
49764;SDS011;35657;51.204;-4.130;2023-02-03T11:45:43;1.08;;;0.38;;
49764;SDS011;35657;51.204;-4.130;2023-02-03T11:48:31;2.67;;;0.57;;
49764;SDS011;35657;51.204;-4.130;2023-02-03T12:07:38;2.05;;;0.70;;
49764;SDS011;35657;51.204;-4.130;2023-02-03T12:21:59;9.07;;;1.38;;
49764;SDS011;35657;51.204;-4.130;2023-02-03T12:24:45;1.42;;;1.08;;
49764;SDS011;35657;51.204;-4.130;2023-02-03T12:27:29;2.05;;;0.80;;
49764;SDS011;35657;51.204;-4.130;2023-02-03T12:30:44;2.03;;;0.63;;
49764;SDS011;35657;51.204;-4.130;2023-02-03T12:35:47;7.35;;;0.90;;
49764;SDS011;35657;51.204;-4.130;2023-02-03T12:41:03;2.00;;;0.57;;
49764;SDS011;35657;51.204;-4.130;2023-02-03T12:43:41;13.07;;;0.90;;
49764;SDS011;35657;51.204;-4.130;2023-02-03T12:52:13;11.55;;;6.68;;
49764;SDS011;35657;51.204;-4.130;2023-02-03T12:57:59;9.05;;;4.05;;
49764;SDS011;35657;51.204;-4.130;2023-02-03T13:00:38;11.25;;;5.78;;
49764;SDS011;35657;51.204;-4.130;2023-02-03T13:06:12;8.32;;;3.10;;
49764;SDS011;35657;51.204;-4.130;2023-02-03T13:08:55;5.45;;;2.15;;
49764;SDS011;35657;51.204;-4.130;2023-02-03T13:11:29;5.55;;;1.10;;
49764;SDS011;35657;51.204;-4.130;2023-02-03T13:14:02;6.82;;;1.40;;
49764;SDS011;35657;51.204;-4.130;2023-02-03T13:16:39;7.20;;;1.52;;
49764;SDS011;35657;51.204;-4.130;2023-02-03T13:19:10;2.22;;;1.02;;
49764;SDS011;35657;51.204;-4.130;2023-02-03T13:21:41;10.35;;;0.50;;
49764;SDS011;35657;51.204;-4.130;2023-02-03T13:24:08;3.03;;;0.57;;
49764;SDS011;35657;51.204;-4.130;2023-02-03T13:26:54;1.45;;;0.57;;
49764;SDS011;35657;51.204;-4.130;2023-02-03T13:32:07;3.10;;;1.13;;
49764;SDS011;35657;51.204;-4.130;2023-02-03T13:43:03;16.98;;;7.78;;
49764;SDS011;35657;51.204;-4.130;2023-02-03T13:45:39;13.70;;;5.28;;
49764;SDS011;35657;51.204;-4.130;2023-02-03T13:48:15;9.55;;;5.63;;
49764;SDS011;35657;51.204;-4.130;2023-02-03T13:50:48;7.30;;;3.75;;
49764;SDS011;35657;51.204;-4.130;2023-02-03T13:53:26;2.83;;;1.10;;
49764;SDS011;35657;51.204;-4.130;2023-02-03T14:03:17;4.53;;;1.75;;
49764;SDS011;35657;51.204;-4.130;2023-02-03T14:05:49;1.65;;;0.25;;
49764;SDS011;35657;51.204;-4.130;2023-02-03T14:09:01;5.15;;;1.23;;
49764;SDS011;35657;51.204;-4.130;2023-02-03T14:19:12;1.25;;;0.50;;
49764;SDS011;35657;51.204;-4.130;2023-02-03T14:22:07;2.63;;;0.50;;
49764;SDS011;35657;51.204;-4.130;2023-02-03T14:24:41;3.53;;;0.43;;
49764;SDS011;35657;51.204;-4.130;2023-02-03T14:33:20;2.13;;;0.60;;
49764;SDS011;35657;51.204;-4.130;2023-02-03T14:35:31;0.95;;;0.45;;
49764;SDS011;35657;51.204;-4.130;2023-02-03T14:38:05;3.13;;;0.40;;
49764;SDS011;35657;51.204;-4.130;2023-02-03T14:59:43;3.85;;;1.80;;
49764;SDS011;35657;51.204;-4.130;2023-02-03T15:02:17;5.53;;;2.28;;
49764;SDS011;35657;51.204;-4.130;2023-02-03T15:04:43;5.57;;;1.42;;
49764;SDS011;35657;51.204;-4.130;2023-02-03T15:10:03;3.47;;;0.65;;
49764;SDS011;35657;51.204;-4.130;2023-02-03T15:12:37;2.28;;;0.85;;
49764;SDS011;35657;51.204;-4.130;2023-02-03T15:15:22;1.48;;;0.50;;
49764;SDS011;35657;51.204;-4.130;2023-02-03T15:17:49;5.20;;;1.40;;
49764;SDS011;35657;51.204;-4.130;2023-02-03T15:22:55;17.10;;;6.07;;
49764;SDS011;35657;51.204;-4.130;2023-02-03T15:25:22;11.98;;;4.68;;
49764;SDS011;35657;51.204;-4.130;2023-02-03T15:27:49;7.90;;;4.32;;
49764;SDS011;35657;51.204;-4.130;2023-02-03T15:30:16;8.73;;;4.30;;
49764;SDS011;35657;51.204;-4.130;2023-02-03T15:32:53;4.32;;;2.05;;
49764;SDS011;35657;51.204;-4.130;2023-02-03T15:35:28;3.17;;;1.27;;
49764;SDS011;35657;51.204;-4.130;2023-02-03T15:37:59;2.92;;;1.08;;
49764;SDS011;35657;51.204;-4.130;2023-02-03T15:40:41;4.75;;;0.93;;
49764;SDS011;35657;51.204;-4.130;2023-02-03T15:43:13;3.65;;;0.90;;
49764;SDS011;35657;51.204;-4.130;2023-02-03T15:48:38;5.22;;;0.75;;
49764;SDS011;35657;51.204;-4.130;2023-02-03T15:53:56;3.25;;;0.80;;
49764;SDS011;35657;51.204;-4.130;2023-02-03T15:59:00;7.63;;;1.25;;
49764;SDS011;35657;51.204;-4.130;2023-02-03T16:01:26;3.97;;;0.60;;
49764;SDS011;35657;51.204;-4.130;2023-02-03T16:03:53;1.48;;;0.65;;
49764;SDS011;35657;51.204;-4.130;2023-02-03T16:08:54;3.42;;;0.50;;
49764;SDS011;35657;51.204;-4.130;2023-02-03T16:13:49;4.38;;;0.85;;
49764;SDS011;35657;51.204;-4.130;2023-02-03T16:19:00;4.70;;;0.93;;
49764;SDS011;35657;51.204;-4.130;2023-02-03T16:23:56;0.82;;;0.82;;
49764;SDS011;35657;51.204;-4.130;2023-02-03T16:26:23;8.52;;;1.00;;
49764;SDS011;35657;51.204;-4.130;2023-02-03T16:31:47;28.77;;;17.40;;
49764;SDS011;35657;51.204;-4.130;2023-02-03T16:34:32;27.27;;;15.63;;
49764;SDS011;35657;51.204;-4.130;2023-02-03T16:40:05;2.92;;;1.70;;
49764;SDS011;35657;51.204;-4.130;2023-02-03T16:42:50;4.13;;;2.45;;
49764;SDS011;35657;51.204;-4.130;2023-02-03T16:45:34;7.43;;;1.40;;
49764;SDS011;35657;51.204;-4.130;2023-02-03T16:48:18;2.85;;;0.70;;
49764;SDS011;35657;51.204;-4.130;2023-02-03T16:51:03;2.90;;;0.73;;
49764;SDS011;35657;51.204;-4.130;2023-02-03T16:53:34;1.85;;;0.40;;
49764;SDS011;35657;51.204;-4.130;2023-02-03T16:56:01;8.30;;;0.80;;
49764;SDS011;35657;51.204;-4.130;2023-02-03T16:58:28;2.05;;;0.47;;
49764;SDS011;35657;51.204;-4.130;2023-02-03T17:00:56;5.13;;;0.85;;
49764;SDS011;35657;51.204;-4.130;2023-02-03T17:03:24;2.15;;;1.17;;
49764;SDS011;35657;51.204;-4.130;2023-02-03T17:05:51;1.35;;;0.40;;
49764;SDS011;35657;51.204;-4.130;2023-02-03T17:08:18;6.43;;;0.60;;
49764;SDS011;35657;51.204;-4.130;2023-02-03T17:10:47;3.67;;;0.40;;
49764;SDS011;35657;51.204;-4.130;2023-02-03T17:13:15;1.95;;;1.02;;
49764;SDS011;35657;51.204;-4.130;2023-02-03T17:15:43;4.35;;;1.30;;
49764;SDS011;35657;51.204;-4.130;2023-02-03T17:18:10;4.72;;;0.65;;
49764;SDS011;35657;51.204;-4.130;2023-02-03T17:20:39;3.83;;;0.43;;
49764;SDS011;35657;51.204;-4.130;2023-02-03T17:23:06;0.20;;;0.20;;
49764;SDS011;35657;51.204;-4.130;2023-02-03T17:25:34;1.70;;;0.73;;
49764;SDS011;35657;51.204;-4.130;2023-02-03T17:28:01;2.53;;;0.63;;
49764;SDS011;35657;51.204;-4.130;2023-02-03T17:30:27;6.25;;;0.73;;
49764;SDS011;35657;51.204;-4.130;2023-02-03T17:32:57;4.05;;;1.00;;
49764;SDS011;35657;51.204;-4.130;2023-02-03T17:35:24;4.95;;;0.63;;
49764;SDS011;35657;51.204;-4.130;2023-02-03T17:37:50;1.30;;;0.75;;
49764;SDS011;35657;51.204;-4.130;2023-02-03T17:40:16;1.30;;;0.60;;
49764;SDS011;35657;51.204;-4.130;2023-02-03T17:42:42;0.85;;;0.40;;
49764;SDS011;35657;51.204;-4.130;2023-02-03T17:45:08;4.75;;;1.17;;
49764;SDS011;35657;51.204;-4.130;2023-02-03T17:47:34;9.63;;;1.20;;